Time;durP1;ratioP1;P1;durP2;ratioP2;P2;SDS_P1;SDS_P2;PMS_P1;PMS_P2;Temp;Humidity;BMP_temperature;BMP_pressure;BME280_temperature;BME280_humidity;BME280_pressure;Samples;Min_cycle;Max_cycle;Signal;HPM_P1;HPM_P2
2021/10/24 00:01:46;;;;;;;10.63;4.23;;;2.80;99.90;;;;;;5051972;28;20206;-68
2021/10/24 00:04:14;;;;;;;6.70;4.30;;;2.70;99.90;;;;;;5053542;28;20194;-68
2021/10/24 00:06:41;;;;;;;10.57;4.93;;;2.50;99.90;;;;;;5050483;28;20195;-68
2021/10/24 00:09:08;;;;;;;8.70;4.13;;;2.50;99.90;;;;;;5053148;28;20574;-68
2021/10/24 00:11:35;;;;;;;8.77;4.30;;;2.40;99.90;;;;;;5051970;28;20230;-68
2021/10/24 00:14:04;;;;;;;9.80;4.80;;;2.60;99.90;;;;;;5050566;28;20661;-68
2021/10/24 00:16:33;;;;;;;9.33;4.70;;;2.70;99.90;;;;;;5052531;28;20306;-68
2021/10/24 00:19:00;;;;;;;7.10;3.67;;;2.70;99.90;;;;;;5041715;28;20536;-68
2021/10/24 00:21:27;;;;;;;7.53;4.20;;;2.70;99.90;;;;;;5053247;28;20199;-68
2021/10/24 00:23:53;;;;;;;8.70;4.20;;;2.70;99.90;;;;;;5052080;28;20199;-68
2021/10/24 00:26:20;;;;;;;10.67;4.40;;;2.70;99.90;;;;;;5053075;28;20206;-68
2021/10/24 00:28:47;;;;;;;10.20;4.60;;;2.80;99.90;;;;;;5051821;28;20213;-68
2021/10/24 00:31:14;;;;;;;8.77;4.63;;;2.80;99.90;;;;;;5041117;28;20206;-68
2021/10/24 00:33:42;;;;;;;11.77;4.40;;;2.80;99.90;;;;;;5045676;28;20697;-68
2021/10/24 00:36:09;;;;;;;6.80;3.97;;;2.80;99.90;;;;;;5048324;28;20203;-68
2021/10/24 00:38:36;;;;;;;6.23;3.90;;;2.70;99.90;;;;;;5047279;28;20645;-68
2021/10/24 00:41:03;;;;;;;7.30;4.07;;;2.30;99.90;;;;;;5052047;28;20622;-69
2021/10/24 00:43:30;;;;;;;8.87;5.23;;;2.20;99.90;;;;;;5051637;28;20665;-68
2021/10/24 00:45:57;;;;;;;9.60;4.17;;;2.10;99.90;;;;;;5052567;28;20285;-68
2021/10/24 00:48:24;;;;;;;9.23;4.10;;;2.30;99.90;;;;;;5051782;28;20209;-68
2021/10/24 00:50:53;;;;;;;9.43;4.33;;;2.40;99.90;;;;;;5052444;28;20203;-68
2021/10/24 00:53:20;;;;;;;8.30;4.33;;;2.40;99.90;;;;;;5052082;28;20245;-68
2021/10/24 00:55:47;;;;;;;7.20;4.17;;;2.50;99.90;;;;;;5052568;28;20215;-69
2021/10/24 00:58:16;;;;;;;13.77;4.70;;;2.60;99.90;;;;;;5052493;28;20206;-68
2021/10/24 01:00:43;;;;;;;7.40;4.40;;;2.60;99.90;;;;;;5051283;28;20268;-68
2021/10/24 01:03:10;;;;;;;9.17;4.33;;;2.60;99.90;;;;;;5051837;28;20572;-69
2021/10/24 01:05:37;;;;;;;11.13;4.93;;;2.60;99.90;;;;;;5051305;28;20210;-68
2021/10/24 01:08:05;;;;;;;8.30;4.50;;;2.50;99.90;;;;;;5052326;28;20207;-68
2021/10/24 01:10:33;;;;;;;10.20;5.10;;;2.50;99.90;;;;;;5051486;28;20195;-68
2021/10/24 01:12:59;;;;;;;10.30;4.37;;;2.50;99.90;;;;;;5052232;28;20218;-68
2021/10/24 01:15:26;;;;;;;11.30;5.00;;;2.50;99.90;;;;;;5051172;28;20199;-68
2021/10/24 01:17:53;;;;;;;11.03;5.00;;;2.60;99.90;;;;;;5051503;28;20667;-68
2021/10/24 01:20:23;;;;;;;9.70;4.83;;;2.70;99.90;;;;;;5051857;28;20203;-69
2021/10/24 01:22:52;;;;;;;9.57;5.10;;;2.60;99.90;;;;;;5051719;28;20203;-68
2021/10/24 01:25:20;;;;;;;13.13;5.10;;;2.70;99.90;;;;;;5051946;28;20747;-68
2021/10/24 01:27:48;;;;;;;7.37;5.10;;;2.60;99.90;;;;;;5050496;28;20207;-68
2021/10/24 01:30:15;;;;;;;10.03;5.50;;;2.70;99.90;;;;;;5051770;28;20683;-68
2021/10/24 01:32:42;;;;;;;9.43;5.10;;;2.70;99.90;;;;;;5051240;28;20219;-68
2021/10/24 01:35:10;;;;;;;11.47;5.83;;;2.60;99.90;;;;;;5051807;28;20207;-68
2021/10/24 01:37:39;;;;;;;9.93;5.20;;;2.60;99.90;;;;;;5051486;28;20249;-68
2021/10/24 01:40:10;;;;;;;11.43;5.43;;;2.60;99.90;;;;;;5051363;28;20268;-68
2021/10/24 01:42:50;;;;;;;8.53;4.60;;;2.60;99.90;;;;;;5051345;28;20632;-68
2021/10/24 01:45:19;;;;;;;8.63;4.97;;;2.60;99.90;;;;;;5051548;28;20430;-68
2021/10/24 01:47:46;;;;;;;11.93;5.60;;;2.70;99.90;;;;;;5050952;28;20286;-69
2021/10/24 01:50:13;;;;;;;7.60;4.53;;;2.80;99.90;;;;;;5050458;28;20213;-68
2021/10/24 01:52:43;;;;;;;8.90;4.83;;;2.70;99.90;;;;;;5036789;28;20222;-68
2021/10/24 01:55:13;;;;;;;10.03;5.07;;;2.70;99.90;;;;;;5040369;28;20199;-68
2021/10/24 01:57:43;;;;;;;9.73;4.90;;;2.60;99.90;;;;;;5051346;28;20574;-69
2021/10/24 02:00:13;;;;;;;8.97;4.47;;;2.70;99.90;;;;;;5046318;28;20203;-69
2021/10/24 02:02:40;;;;;;;11.00;4.67;;;2.80;99.90;;;;;;5050699;28;20273;-69
2021/10/24 02:05:08;;;;;;;10.33;4.63;;;2.80;99.90;;;;;;5048085;28;20195;-68
2021/10/24 02:07:35;;;;;;;10.17;5.20;;;2.70;99.90;;;;;;5049893;28;20664;-68
2021/10/24 02:10:02;;;;;;;9.27;4.27;;;2.50;99.90;;;;;;5049422;28;20198;-68
2021/10/24 02:12:30;;;;;;;7.50;4.70;;;2.40;99.90;;;;;;5045604;28;20215;-68
2021/10/24 02:14:57;;;;;;;9.83;4.60;;;2.10;99.90;;;;;;5035093;28;20195;-68
2021/10/24 02:17:23;;;;;;;10.77;5.10;;;2.10;99.90;;;;;;5049836;28;20202;-68
2021/10/24 02:19:51;;;;;;;9.87;5.00;;;1.90;99.90;;;;;;5054711;28;20579;-68
2021/10/24 02:22:18;;;;;;;10.73;5.17;;;1.80;99.90;;;;;;5055880;28;20199;-68
2021/10/24 02:24:45;;;;;;;13.90;5.17;;;1.80;99.90;;;;;;5048977;28;20200;-69
2021/10/24 02:27:12;;;;;;;8.23;4.67;;;1.90;99.90;;;;;;5055184;28;20203;-68
2021/10/24 02:29:40;;;;;;;7.97;5.07;;;2.10;99.90;;;;;;5048924;28;20202;-68
2021/10/24 02:32:07;;;;;;;9.83;4.97;;;2.10;99.90;;;;;;5056268;28;20272;-68
2021/10/24 02:34:34;;;;;;;6.87;4.63;;;2.10;99.90;;;;;;5055473;28;20206;-68
2021/10/24 02:37:01;;;;;;;10.43;5.23;;;2.20;99.90;;;;;;5057246;28;20225;-68
2021/10/24 02:39:28;;;;;;;10.57;4.83;;;2.40;99.90;;;;;;5051738;28;20202;-68
2021/10/24 02:41:55;;;;;;;14.23;5.90;;;2.30;99.90;;;;;;5056668;28;20199;-68
2021/10/24 02:44:22;;;;;;;10.80;5.60;;;2.30;99.90;;;;;;5057061;28;20199;-68
2021/10/24 02:46:51;;;;;;;9.37;5.50;;;2.30;99.90;;;;;;5054229;28;20563;-68
2021/10/24 02:49:19;;;;;;;10.37;5.17;;;2.30;99.90;;;;;;5054629;28;20207;-68
2021/10/24 02:51:47;;;;;;;9.20;5.20;;;2.30;99.90;;;;;;5054485;28;20475;-68
2021/10/24 02:54:14;;;;;;;7.77;4.87;;;2.40;99.90;;;;;;5055389;28;20214;-68
2021/10/24 02:56:40;;;;;;;11.60;5.33;;;2.40;99.90;;;;;;5055573;28;20230;-68
2021/10/24 02:59:07;;;;;;;9.13;5.00;;;2.40;99.90;;;;;;5051741;28;20239;-68
2021/10/24 03:01:35;;;;;;;9.67;5.17;;;2.40;99.90;;;;;;5050504;28;20483;-68
2021/10/24 03:04:04;;;;;;;10.50;5.27;;;2.30;99.90;;;;;;5057333;28;20642;-68
2021/10/24 03:06:31;;;;;;;11.47;5.37;;;2.10;99.90;;;;;;5056702;28;20195;-68
2021/10/24 03:08:58;;;;;;;10.10;7.17;;;2.00;99.90;;;;;;5056649;28;20664;-68
2021/10/24 03:11:25;;;;;;;8.40;4.60;;;1.90;99.90;;;;;;5055924;28;20766;-68
2021/10/24 03:13:52;;;;;;;8.20;4.10;;;1.70;99.90;;;;;;5056181;28;20221;-68
2021/10/24 03:16:19;;;;;;;9.00;4.33;;;1.60;99.90;;;;;;5055653;28;20207;-68
2021/10/24 03:18:46;;;;;;;7.47;4.57;;;1.60;99.90;;;;;;5055653;28;20210;-68
2021/10/24 03:21:14;;;;;;;6.77;4.67;;;1.70;99.90;;;;;;5056560;28;20447;-68
2021/10/24 03:23:41;;;;;;;9.77;5.07;;;1.80;99.90;;;;;;5057527;28;20198;-68
2021/10/24 03:26:08;;;;;;;8.63;5.03;;;1.90;99.90;;;;;;5057542;28;20554;-68
2021/10/24 03:28:36;;;;;;;8.73;4.60;;;1.90;99.90;;;;;;5053833;28;20199;-68
2021/10/24 03:31:03;;;;;;;9.63;5.07;;;1.90;99.90;;;;;;5053993;28;20261;-68
2021/10/24 03:33:30;;;;;;;7.97;5.93;;;2.00;99.90;;;;;;5053386;28;20697;-68
2021/10/24 03:35:56;;;;;;;9.30;6.10;;;2.10;99.90;;;;;;5054216;28;20190;-68
2021/10/24 03:38:25;;;;;;;10.30;5.97;;;2.00;99.90;;;;;;5053702;28;20210;-68
2021/10/24 03:40:51;;;;;;;17.10;6.97;;;1.70;99.90;;;;;;5053499;28;20203;-68
2021/10/24 03:43:18;;;;;;;15.23;6.73;;;1.50;99.90;;;;;;5053267;28;20221;-68
2021/10/24 03:45:45;;;;;;;13.53;6.77;;;1.50;99.90;;;;;;5053594;28;20641;-68
2021/10/24 03:48:12;;;;;;;13.90;6.30;;;1.50;99.90;;;;;;5054383;28;20210;-68
2021/10/24 03:50:39;;;;;;;9.53;6.03;;;1.60;99.90;;;;;;5053819;28;20556;-68
2021/10/24 03:53:05;;;;;;;10.80;5.27;;;1.50;99.90;;;;;;5052663;28;20219;-68
2021/10/24 03:55:34;;;;;;;9.40;4.50;;;1.60;99.90;;;;;;5052676;28;20214;-68
2021/10/24 03:58:01;;;;;;;8.90;5.40;;;1.70;99.90;;;;;;5053503;28;20203;-68
2021/10/24 04:00:28;;;;;;;9.40;5.30;;;1.80;99.90;;;;;;5050486;28;20289;-68
2021/10/24 04:02:57;;;;;;;11.10;5.20;;;1.80;99.90;;;;;;5044949;28;20196;-68
2021/10/24 04:05:24;;;;;;;10.43;5.33;;;1.90;99.90;;;;;;5047903;28;20198;-68
2021/10/24 04:07:52;;;;;;;11.93;5.20;;;1.80;99.90;;;;;;5053011;28;20564;-68
2021/10/24 04:10:20;;;;;;;10.70;5.40;;;1.90;99.90;;;;;;5042456;28;20210;-69
2021/10/24 04:12:49;;;;;;;12.90;5.63;;;2.10;99.90;;;;;;5052627;28;20260;-69
2021/10/24 04:15:16;;;;;;;14.90;7.27;;;2.20;99.90;;;;;;5048638;28;20212;-68
2021/10/24 04:17:43;;;;;;;11.30;5.50;;;2.30;99.90;;;;;;5051187;28;20285;-68
2021/10/24 04:20:13;;;;;;;12.40;6.80;;;2.30;99.90;;;;;;5052830;28;20692;-68
2021/10/24 04:22:40;;;;;;;8.30;5.23;;;2.30;99.90;;;;;;5052502;28;20260;-68
2021/10/24 04:25:10;;;;;;;11.63;5.40;;;2.30;99.90;;;;;;5051998;28;20199;-68
2021/10/24 04:27:37;;;;;;;8.93;4.73;;;2.50;99.90;;;;;;5052226;28;20203;-68
2021/10/24 04:30:08;;;;;;;8.23;4.67;;;2.60;99.90;;;;;;5048384;28;20214;-68
2021/10/24 04:32:36;;;;;;;8.53;5.00;;;2.60;99.90;;;;;;5050014;28;20206;-68
2021/10/24 04:35:03;;;;;;;10.93;5.20;;;2.50;99.90;;;;;;5044076;28;20380;-68
2021/10/24 04:37:30;;;;;;;7.23;4.40;;;2.50;99.90;;;;;;5048111;28;20209;-68
2021/10/24 04:39:57;;;;;;;11.60;4.40;;;2.60;99.90;;;;;;5049650;28;20202;-68
2021/10/24 04:42:24;;;;;;;10.73;4.73;;;2.70;99.90;;;;;;5052664;28;20218;-68
2021/10/24 04:44:51;;;;;;;11.13;4.63;;;2.70;99.90;;;;;;5053062;28;20203;-68
2021/10/24 04:47:19;;;;;;;7.47;4.13;;;2.60;99.90;;;;;;5051162;28;20207;-68
2021/10/24 04:49:46;;;;;;;10.20;5.10;;;2.60;99.90;;;;;;5052964;28;20629;-68
2021/10/24 04:52:13;;;;;;;8.37;4.57;;;2.50;99.90;;;;;;5048682;28;20222;-68
2021/10/24 04:54:40;;;;;;;12.67;5.23;;;2.60;99.90;;;;;;5048596;28;20233;-68
2021/10/24 04:57:06;;;;;;;12.20;5.13;;;2.50;99.90;;;;;;5046494;28;20291;-68
2021/10/24 04:59:34;;;;;;;11.33;4.80;;;2.50;99.90;;;;;;5045983;28;20286;-68
2021/10/24 05:02:01;;;;;;;10.47;5.00;;;2.40;99.90;;;;;;5050874;28;20209;-68
2021/10/24 05:04:29;;;;;;;9.97;5.17;;;2.50;99.90;;;;;;5047517;28;20676;-68
2021/10/24 05:06:56;;;;;;;11.87;5.27;;;2.40;99.90;;;;;;5049852;28;20213;-68
2021/10/24 05:09:23;;;;;;;9.93;6.07;;;2.50;99.90;;;;;;5050067;28;20641;-68
2021/10/24 05:11:49;;;;;;;9.83;5.20;;;2.40;99.90;;;;;;5049704;28;20583;-68
2021/10/24 05:14:16;;;;;;;9.37;5.17;;;2.40;99.90;;;;;;5043785;28;20219;-69
2021/10/24 05:16:43;;;;;;;10.67;4.90;;;2.30;99.90;;;;;;5047046;28;20211;-68
2021/10/24 05:19:10;;;;;;;11.90;5.43;;;2.30;99.90;;;;;;5048920;28;20202;-68
2021/10/24 05:21:38;;;;;;;9.20;4.80;;;2.50;99.90;;;;;;5048743;28;20293;-68
2021/10/24 05:24:05;;;;;;;11.07;6.00;;;2.50;99.90;;;;;;5046448;28;20195;-68
2021/10/24 05:26:32;;;;;;;10.07;5.93;;;2.50;99.90;;;;;;5048791;28;20570;-68
2021/10/24 05:28:59;;;;;;;11.07;5.67;;;2.50;99.90;;;;;;5047949;28;20196;-68
2021/10/24 05:31:26;;;;;;;11.67;5.30;;;2.60;99.90;;;;;;5048414;28;20235;-68
2021/10/24 05:33:54;;;;;;;11.97;5.60;;;2.50;99.90;;;;;;5048607;28;20230;-68
2021/10/24 05:36:21;;;;;;;6.60;4.77;;;2.50;99.90;;;;;;5049474;28;20564;-68
2021/10/24 05:38:50;;;;;;;9.97;5.30;;;2.50;99.90;;;;;;5049994;28;20213;-68
2021/10/24 05:41:17;;;;;;;8.07;4.70;;;2.50;99.90;;;;;;5048881;28;20227;-68
2021/10/24 05:43:43;;;;;;;12.43;5.43;;;2.60;99.90;;;;;;5049869;28;20203;-68
2021/10/24 05:46:11;;;;;;;8.27;5.00;;;2.70;99.90;;;;;;5049029;28;20308;-68
2021/10/24 05:48:38;;;;;;;12.40;5.23;;;2.80;99.90;;;;;;5048569;28;20199;-68
2021/10/24 05:51:05;;;;;;;10.90;4.83;;;2.90;99.90;;;;;;5049334;28;20695;-69
2021/10/24 05:53:32;;;;;;;12.23;4.97;;;2.90;99.90;;;;;;5048415;28;20560;-68
2021/10/24 05:56:01;;;;;;;12.10;5.50;;;3.00;99.90;;;;;;5049560;28;20293;-68
2021/10/24 05:58:27;;;;;;;9.90;4.70;;;3.00;99.90;;;;;;5043307;28;20283;-69
2021/10/24 06:00:54;;;;;;;9.17;4.70;;;2.90;99.90;;;;;;5049304;28;20745;-68
2021/10/24 06:03:21;;;;;;;10.73;4.73;;;2.80;99.90;;;;;;5050700;28;20199;-68
2021/10/24 06:05:48;;;;;;;8.90;4.63;;;2.90;99.90;;;;;;5050335;28;20199;-68
2021/10/24 06:08:21;;;;;;;8.10;4.40;;;2.80;99.90;;;;;;5049148;28;21600;-68
2021/10/24 06:10:49;;;;;;;14.73;4.70;;;2.90;99.90;;;;;;5045134;28;20230;-69
2021/10/24 06:13:17;;;;;;;11.13;4.33;;;3.00;99.90;;;;;;5044875;28;20252;-68
2021/10/24 06:15:44;;;;;;;13.20;6.53;;;2.90;99.90;;;;;;5046929;28;20199;-69
2021/10/24 06:18:12;;;;;;;12.97;5.43;;;2.90;99.90;;;;;;5049056;28;20195;-69
2021/10/24 06:20:39;;;;;;;12.10;5.73;;;3.20;99.90;;;;;;5048793;28;20199;-68
2021/10/24 06:23:07;;;;;;;11.20;4.73;;;3.20;99.90;;;;;;5048627;28;20213;-68
2021/10/24 06:25:34;;;;;;;8.63;4.17;;;3.10;99.90;;;;;;5051529;28;20192;-68
2021/10/24 06:28:01;;;;;;;8.73;4.07;;;3.10;99.90;;;;;;5035949;28;20206;-69
2021/10/24 06:30:29;;;;;;;7.87;4.43;;;3.20;99.90;;;;;;5047216;28;20195;-69
2021/10/24 06:32:56;;;;;;;10.53;4.63;;;3.10;99.90;;;;;;5047554;28;20211;-69
2021/10/24 06:35:23;;;;;;;7.87;3.50;;;3.10;99.90;;;;;;5043702;28;20722;-69
2021/10/24 06:37:50;;;;;;;8.47;3.97;;;3.10;99.90;;;;;;5052855;28;20198;-69
2021/10/24 06:40:18;;;;;;;9.80;4.27;;;3.20;99.90;;;;;;5043633;28;20199;-69
2021/10/24 06:42:45;;;;;;;8.33;4.00;;;3.10;99.90;;;;;;5045399;28;20657;-69
2021/10/24 06:45:12;;;;;;;6.30;3.47;;;3.30;99.90;;;;;;5044482;28;20195;-69
2021/10/24 06:47:40;;;;;;;11.10;4.20;;;3.30;99.90;;;;;;5039600;28;20208;-69
2021/10/24 06:50:10;;;;;;;9.43;4.00;;;3.30;99.90;;;;;;5047242;28;20203;-69
2021/10/24 06:52:37;;;;;;;14.13;5.40;;;3.40;99.90;;;;;;5045100;28;20206;-69
2021/10/24 06:55:05;;;;;;;8.03;3.87;;;3.30;99.90;;;;;;5048106;28;20672;-69
2021/10/24 06:57:33;;;;;;;11.97;4.50;;;3.40;99.90;;;;;;5042191;28;20570;-69
2021/10/24 07:00:01;;;;;;;9.80;4.50;;;3.40;99.90;;;;;;5048874;28;20650;-69
2021/10/24 07:02:27;;;;;;;11.73;4.07;;;3.40;99.90;;;;;;5039292;28;20667;-69
2021/10/24 07:04:56;;;;;;;16.33;4.90;;;3.30;99.90;;;;;;5046910;28;20277;-69
2021/10/24 07:07:24;;;;;;;8.17;4.53;;;3.40;99.90;;;;;;5041039;28;20214;-69
2021/10/24 07:09:51;;;;;;;11.63;4.13;;;3.40;99.90;;;;;;5047080;28;20211;-68
2021/10/24 07:12:18;;;;;;;7.43;3.70;;;3.60;99.90;;;;;;5049756;28;20207;-69
2021/10/24 07:14:45;;;;;;;11.30;5.23;;;3.60;99.90;;;;;;5047715;28;20222;-69
2021/10/24 07:17:12;;;;;;;13.57;5.83;;;3.60;99.90;;;;;;5046375;28;20208;-69
2021/10/24 07:19:39;;;;;;;13.80;5.20;;;3.70;99.90;;;;;;5050382;28;20205;-69
2021/10/24 07:22:07;;;;;;;13.87;5.87;;;3.80;99.90;;;;;;5048063;28;20203;-69
2021/10/24 07:24:34;;;;;;;9.13;5.40;;;4.30;99.90;;;;;;5047530;28;20207;-69
2021/10/24 07:27:01;;;;;;;11.53;5.50;;;5.50;99.90;;;;;;5054418;28;20563;-69
2021/10/24 07:29:28;;;;;;;12.67;6.00;;;6.30;99.90;;;;;;5045781;28;20203;-69
2021/10/24 07:31:55;;;;;;;9.07;4.70;;;6.30;99.90;;;;;;5048200;28;20273;-69
2021/10/24 07:34:23;;;;;;;10.20;4.60;;;5.90;99.90;;;;;;5047938;28;20246;-69
2021/10/24 07:36:51;;;;;;;8.93;3.80;;;6.00;99.90;;;;;;5044475;28;20287;-69
2021/10/24 07:39:19;;;;;;;11.03;4.90;;;5.90;99.90;;;;;;5044876;28;20207;-69
2021/10/24 07:41:47;;;;;;;8.67;4.57;;;6.10;99.90;;;;;;5047411;28;20195;-69
2021/10/24 07:44:14;;;;;;;10.07;3.80;;;6.20;99.90;;;;;;5044248;28;20540;-69
2021/10/24 07:46:41;;;;;;;7.93;4.03;;;6.50;99.90;;;;;;5046814;28;20219;-69
2021/10/24 07:49:08;;;;;;;9.90;4.13;;;6.40;99.90;;;;;;5037966;28;20595;-69
2021/10/24 07:51:35;;;;;;;9.93;4.57;;;6.70;99.90;;;;;;5043332;28;20204;-69
2021/10/24 07:54:03;;;;;;;8.53;4.07;;;6.30;99.90;;;;;;5036120;28;20302;-69
2021/10/24 07:56:33;;;;;;;8.57;3.63;;;6.20;99.90;;;;;;5040279;28;20411;-69
2021/10/24 07:59:00;;;;;;;11.20;4.73;;;6.10;99.90;;;;;;5034941;28;20207;-69
2021/10/24 08:01:27;;;;;;;7.20;4.80;;;6.30;99.90;;;;;;5040580;28;20664;-69
2021/10/24 08:03:55;;;;;;;9.23;4.87;;;6.40;99.90;;;;;;5036659;28;20319;-69
2021/10/24 08:06:22;;;;;;;10.37;4.57;;;7.00;99.90;;;;;;5038892;28;20207;-69
2021/10/24 08:08:49;;;;;;;8.33;4.43;;;7.10;99.90;;;;;;5036072;28;20207;-69
2021/10/24 08:11:16;;;;;;;10.07;4.13;;;6.80;99.90;;;;;;5040018;28;20654;-69
2021/10/24 08:13:45;;;;;;;6.47;4.17;;;7.10;99.90;;;;;;5035303;28;20210;-69
2021/10/24 08:16:13;;;;;;;10.10;4.50;;;7.20;99.90;;;;;;5034954;28;20232;-69
2021/10/24 08:18:40;;;;;;;7.43;4.20;;;7.50;99.90;;;;;;5039144;28;20211;-68
2021/10/24 08:21:06;;;;;;;11.10;4.17;;;7.90;99.90;;;;;;5048580;28;20229;-69
2021/10/24 08:23:33;;;;;;;7.43;4.47;;;8.80;99.90;;;;;;5046060;28;20210;-69
2021/10/24 08:26:00;;;;;;;9.03;4.13;;;8.90;99.90;;;;;;5049188;28;20573;-69
2021/10/24 08:28:27;;;;;;;9.67;4.87;;;8.80;99.90;;;;;;5047436;28;20510;-68
2021/10/24 08:30:56;;;;;;;9.27;5.20;;;8.00;99.90;;;;;;5043881;28;20253;-69
2021/10/24 08:33:23;;;;;;;8.10;4.10;;;7.60;99.90;;;;;;5047275;28;20219;-69
2021/10/24 08:35:50;;;;;;;10.37;4.33;;;7.60;99.90;;;;;;5042978;28;20227;-69
2021/10/24 08:38:17;;;;;;;9.93;3.80;;;7.60;99.90;;;;;;5038610;28;20665;-69
2021/10/24 08:40:46;;;;;;;8.77;3.70;;;7.50;99.90;;;;;;5045058;28;20217;-69
2021/10/24 08:43:18;;;;;;;8.10;4.10;;;7.50;99.90;;;;;;5043903;28;20214;-69
2021/10/24 08:45:46;;;;;;;9.27;4.27;;;7.70;99.90;;;;;;5046020;28;20656;-69
2021/10/24 08:48:16;;;;;;;6.77;3.73;;;8.10;99.90;;;;;;5042124;28;20207;-70
2021/10/24 08:50:45;;;;;;;12.67;4.63;;;8.10;99.90;;;;;;5045749;28;20207;-69
2021/10/24 08:53:13;;;;;;;8.53;4.03;;;8.00;99.90;;;;;;5046899;28;20666;-69
2021/10/24 08:55:41;;;;;;;10.20;3.97;;;8.00;99.90;;;;;;5040902;28;20221;-69
2021/10/24 08:58:10;;;;;;;8.27;3.40;;;8.10;99.90;;;;;;5045581;28;20268;-69
2021/10/24 09:00:37;;;;;;;7.87;3.40;;;8.20;99.90;;;;;;5041260;28;20223;-77
2021/10/24 09:03:09;;;;;;;7.63;3.40;;;8.20;99.90;;;;;;5044463;28;20217;-77
2021/10/24 09:05:39;;;;;;;7.97;3.40;;;8.30;99.90;;;;;;5040641;28;20211;-77
2021/10/24 09:08:07;;;;;;;7.60;3.40;;;8.40;99.90;;;;;;5042275;28;20199;-77
2021/10/24 09:10:43;;;;;;;7.20;2.87;;;8.50;99.90;;;;;;5041611;28;20207;-76
2021/10/24 09:13:12;;;;;;;8.10;3.30;;;8.60;99.90;;;;;;5043955;28;20203;-77
2021/10/24 09:15:47;;;;;;;7.60;3.23;;;8.70;99.90;;;;;;5048598;28;20715;-76
2021/10/24 09:18:15;;;;;;;8.53;2.97;;;8.70;99.90;;;;;;5043252;28;20228;-77
2021/10/24 09:20:44;;;;;;;8.23;2.90;;;8.90;99.90;;;;;;5043702;28;20568;-75
2021/10/24 09:23:13;;;;;;;6.77;3.57;;;8.90;99.90;;;;;;5044350;28;20226;-76
2021/10/24 09:25:52;;;;;;;7.87;2.73;;;9.00;99.90;;;;;;5040878;28;20199;-76
2021/10/24 09:28:21;;;;;;;8.77;3.03;;;9.10;99.90;;;;;;5044660;28;20214;-77
2021/10/24 09:30:58;;;;;;;7.60;3.10;;;9.10;99.90;;;;;;5043159;28;20238;-77
2021/10/24 09:33:25;;;;;;;7.50;2.47;;;9.20;99.90;;;;;;5046541;28;20740;-77
2021/10/24 09:35:53;;;;;;;7.67;3.20;;;9.30;99.90;;;;;;5048148;28;20222;-77
2021/10/24 09:38:23;;;;;;;7.47;3.20;;;9.40;99.90;;;;;;5046245;28;20210;-76
2021/10/24 09:40:54;;;;;;;4.70;2.87;;;9.60;99.90;;;;;;5045841;28;20210;-77
2021/10/24 09:43:22;;;;;;;6.27;2.67;;;9.60;99.90;;;;;;5043760;28;20621;-77
2021/10/24 09:45:51;;;;;;;5.73;2.53;;;9.70;99.90;;;;;;5045019;28;20203;-79
2021/10/24 09:48:21;;;;;;;6.40;2.77;;;9.90;99.90;;;;;;5044490;28;20218;-77
2021/10/24 09:50:51;;;;;;;9.57;3.27;;;10.30;99.90;;;;;;5033343;28;20575;-77
2021/10/24 09:53:22;;;;;;;8.53;3.60;;;10.60;99.90;;;;;;5038919;28;20218;-77
2021/10/24 09:56:04;;;;;;;6.13;2.67;;;10.50;99.90;;;;;;5043226;28;20707;-77
2021/10/24 09:58:32;;;;;;;5.10;2.17;;;11.00;99.90;;;;;;5044364;28;20211;-77
2021/10/24 10:01:01;;;;;;;6.27;2.60;;;11.00;99.90;;;;;;5039017;28;20204;-77
2021/10/24 10:03:28;;;;;;;5.07;2.37;;;11.10;99.90;;;;;;5037128;28;20720;-77
2021/10/24 10:05:57;;;;;;;6.90;2.13;;;11.20;99.90;;;;;;5041655;28;20247;-76
2021/10/24 10:08:25;;;;;;;5.17;2.60;;;11.30;99.90;;;;;;5040143;28;20214;-77
2021/10/24 10:10:59;;;;;;;6.33;2.60;;;11.80;99.90;;;;;;5043074;28;20207;-77
2021/10/24 10:13:28;;;;;;;5.83;2.20;;;12.10;99.90;;;;;;5044584;28;20696;-76
2021/10/24 10:16:03;;;;;;;4.97;2.57;;;11.70;99.90;;;;;;5043122;28;20277;-76
2021/10/24 10:18:30;;;;;;;5.50;2.67;;;11.80;99.90;;;;;;5040816;28;20690;-77
2021/10/24 10:21:04;;;;;;;5.63;2.20;;;12.20;99.90;;;;;;5048319;28;20819;-77
2021/10/24 10:23:41;;;;;;;6.20;2.30;;;12.10;99.90;;;;;;5042554;28;20289;-77
2021/10/24 10:26:36;;;;;;;6.03;2.67;;;11.90;99.90;;;;;;5043629;28;20672;-77
2021/10/24 10:29:05;;;;;;;5.20;2.33;;;12.10;99.90;;;;;;5039963;28;20221;-76
2021/10/24 10:31:33;;;;;;;10.13;2.83;;;12.60;99.90;;;;;;5037378;28;20214;-76
2021/10/24 10:34:06;;;;;;;5.60;2.20;;;12.70;99.90;;;;;;5043658;28;20927;-77
2021/10/24 10:36:59;;;;;;;5.97;2.57;;;12.30;99.90;;;;;;5040127;28;20753;-76
2021/10/24 10:39:44;;;;;;;5.23;2.50;;;12.70;99.90;;;;;;5039986;28;20211;-77
2021/10/24 10:43:03;;;;;;;8.17;2.80;;;12.60;99.60;;;;;;5045122;28;20691;-76
2021/10/24 10:45:46;;;;;;;5.70;2.20;;;12.50;99.80;;;;;;4963787;28;20677;-77
2021/10/24 10:48:34;;;;;;;4.67;2.50;;;13.00;98.60;;;;;;4969763;28;20240;-76
2021/10/24 10:51:13;;;;;;;4.57;2.07;;;13.00;98.20;;;;;;5022016;28;20215;-77
2021/10/24 10:54:05;;;;;;;5.27;2.40;;;13.00;97.70;;;;;;5044001;28;20748;-76
2021/10/24 10:56:58;;;;;;;2.90;2.10;;;13.10;97.90;;;;;;5041253;28;20250;-79
2021/10/24 10:59:34;;;;;;;3.83;2.03;;;13.30;97.90;;;;;;5047937;28;20715;-78
2021/10/24 11:02:21;;;;;;;5.33;2.40;;;13.30;96.90;;;;;;5049404;28;20567;-79
2021/10/24 11:04:49;;;;;;;5.57;2.23;;;13.20;98.00;;;;;;5047035;28;20684;-79
2021/10/24 11:07:35;;;;;;;4.90;2.20;;;13.70;96.20;;;;;;5050523;28;20213;-79
2021/10/24 11:10:02;;;;;;;3.83;2.30;;;13.60;98.20;;;;;;5046587;28;20199;-79
2021/10/24 11:12:51;;;;;;;4.80;2.00;;;13.70;98.70;;;;;;5047528;28;20222;-76
2021/10/24 11:15:31;;;;;;;7.87;2.37;;;13.90;96.60;;;;;;5047422;28;20278;-76
2021/10/24 11:18:05;;;;;;;8.67;2.40;;;13.70;95.70;;;;;;5044767;28;20256;-76
2021/10/24 11:20:46;;;;;;;5.63;2.63;;;13.50;95.50;;;;;;5041089;28;20211;-76
2021/10/24 11:23:18;;;;;;;3.70;2.20;;;13.60;96.30;;;;;;5046896;28;20243;-76
2021/10/24 11:25:46;;;;;;;5.27;2.33;;;14.00;94.80;;;;;;5045896;28;20207;-76
2021/10/24 11:28:17;;;;;;;6.70;2.43;;;14.20;95.00;;;;;;5046840;28;20563;-76
2021/10/24 11:30:45;;;;;;;3.23;2.03;;;13.80;93.60;;;;;;5048584;28;20289;-77
2021/10/24 11:33:12;;;;;;;5.40;2.70;;;14.10;94.50;;;;;;5049621;28;20211;-77
2021/10/24 11:35:42;;;;;;;4.67;2.10;;;14.50;92.60;;;;;;5050418;28;20225;-76
2021/10/24 11:38:14;;;;;;;5.30;2.27;;;14.40;92.70;;;;;;5047151;28;20203;-76
2021/10/24 11:40:44;;;;;;;6.77;2.40;;;14.50;94.50;;;;;;5047551;28;20195;-76
2021/10/24 11:43:17;;;;;;;5.60;2.40;;;14.00;92.80;;;;;;5040411;28;20208;-76
2021/10/24 11:45:46;;;;;;;3.70;2.07;;;14.50;93.90;;;;;;5050243;28;20230;-76
2021/10/24 11:48:18;;;;;;;7.70;2.73;;;15.00;94.20;;;;;;5049060;28;20207;-77
2021/10/24 11:50:56;;;;;;;12.07;4.73;;;14.60;91.10;;;;;;5050939;28;20243;-76
2021/10/24 11:53:31;;;;;;;4.33;2.70;;;14.80;91.90;;;;;;5034114;28;20278;-76
2021/10/24 11:56:02;;;;;;;4.00;2.10;;;15.00;92.90;;;;;;5047293;28;20223;-77
2021/10/24 12:01:21;;;;;;;4.13;2.50;;;15.30;91.70;;;;;;5050040;28;20686;-77
2021/10/24 12:03:55;;;;;;;8.13;2.60;;;15.40;91.90;;;;;;5051799;28;20203;-77
2021/10/24 12:06:53;;;;;;;2.80;2.20;;;15.00;91.60;;;;;;5044217;28;20294;-76
2021/10/24 12:09:31;;;;;;;4.13;1.90;;;15.20;92.20;;;;;;5049903;28;20214;-76
2021/10/24 12:12:09;;;;;;;5.57;2.60;;;15.40;91.50;;;;;;5050166;28;20209;-77
2021/10/24 12:14:48;;;;;;;4.87;2.23;;;17.00;88.20;;;;;;5053966;28;20210;-77
2021/10/24 12:17:16;;;;;;;4.60;2.67;;;17.80;83.20;;;;;;5043619;28;20238;-76
2021/10/24 12:19:44;;;;;;;6.70;2.57;;;18.00;80.20;;;;;;5045474;28;20199;-77
2021/10/24 12:22:12;;;;;;;4.87;2.63;;;18.60;77.10;;;;;;5050786;28;20192;-70
2021/10/24 12:24:45;;;;;;;4.10;2.07;;;19.20;75.00;;;;;;5041320;28;20218;-70
2021/10/24 12:27:19;;;;;;;5.57;2.40;;;19.80;74.40;;;;;;5044426;28;20572;-71
2021/10/24 12:30:12;;;;;;;8.00;3.30;;;19.40;70.80;;;;;;5050402;28;20207;-70
2021/10/24 12:32:56;;;;;;;5.13;2.80;;;18.90;70.70;;;;;;5038939;28;20212;-70
2021/10/24 12:35:23;;;;;;;4.32;2.88;;;17.70;74.60;;;;;;5045779;28;20290;-70
2021/10/24 12:38:02;;;;;;;3.87;2.23;;;18.30;72.60;;;;;;5049354;28;20567;-70
2021/10/24 12:40:31;;;;;;;11.10;5.07;;;17.50;73.50;;;;;;5049031;28;20242;-70
2021/10/24 12:43:04;;;;;;;5.43;2.20;;;18.60;74.90;;;;;;5042813;28;20206;-70
2021/10/24 12:45:46;;;;;;;4.17;2.43;;;18.10;72.60;;;;;;5044917;28;20272;-70
2021/10/24 12:48:13;;;;;;;5.83;2.50;;;18.10;73.80;;;;;;5035878;28;20210;-70
2021/10/24 12:50:41;;;;;;;8.73;3.00;;;19.00;74.10;;;;;;5047794;28;20352;-70
2021/10/24 12:53:10;;;;;;;4.57;2.57;;;17.60;73.30;;;;;;5044389;28;20222;-70
2021/10/24 12:55:38;;;;;;;4.13;2.37;;;17.90;73.40;;;;;;5046797;28;20241;-70
2021/10/24 12:58:05;;;;;;;5.33;2.60;;;17.20;73.80;;;;;;5048200;28;20205;-70
2021/10/24 13:00:34;;;;;;;5.07;2.67;;;17.60;74.70;;;;;;5047870;28;20207;-70
2021/10/24 13:03:01;;;;;;;7.27;3.93;;;18.20;75.20;;;;;;5047809;28;20203;-70
2021/10/24 13:05:29;;;;;;;4.97;2.70;;;18.00;75.60;;;;;;5048248;28;20519;-70